sensor_id;sensor_type;location;lat;lon;timestamp;pressure;altitude;pressure_sealevel;temperature;humidity
56719;BME280;42597;40.636;0.278;2022-11-20T00:00:50;97030.13;;;14.24;51.14
56719;BME280;42597;40.636;0.278;2022-11-20T00:03:16;97054.69;;;13.18;49.36
56719;BME280;42597;40.636;0.278;2022-11-20T00:05:42;97034.69;;;14.17;52.89
56719;BME280;42597;40.636;0.278;2022-11-20T00:08:08;97045.44;;;13.72;52.00
56719;BME280;42597;40.636;0.278;2022-11-20T00:10:39;97086.72;;;13.58;50.40
56719;BME280;42597;40.636;0.278;2022-11-20T00:13:05;97049.84;;;14.51;53.00
56719;BME280;42597;40.636;0.278;2022-11-20T00:15:31;97048.53;;;14.04;47.34
56719;BME280;42597;40.636;0.278;2022-11-20T00:17:57;97065.13;;;13.96;51.05
56719;BME280;42597;40.636;0.278;2022-11-20T00:20:23;97029.13;;;12.93;47.63
56719;BME280;42597;40.636;0.278;2022-11-20T00:22:49;97052.03;;;14.42;52.38
56719;BME280;42597;40.636;0.278;2022-11-20T00:25:15;97046.03;;;13.89;48.54
56719;BME280;42597;40.636;0.278;2022-11-20T00:27:41;97071.38;;;13.70;48.37
56719;BME280;42597;40.636;0.278;2022-11-20T00:30:07;97056.94;;;14.63;52.96
56719;BME280;42597;40.636;0.278;2022-11-20T00:32:33;97070.03;;;13.87;49.25
56719;BME280;42597;40.636;0.278;2022-11-20T00:34:58;97063.16;;;13.13;49.22
56719;BME280;42597;40.636;0.278;2022-11-20T00:37:25;97078.19;;;13.07;50.66
56719;BME280;42597;40.636;0.278;2022-11-20T00:39:51;97096.41;;;12.83;51.08
56719;BME280;42597;40.636;0.278;2022-11-20T00:42:16;97063.59;;;14.32;52.89
56719;BME280;42597;40.636;0.278;2022-11-20T00:44:42;97079.84;;;14.62;53.39
56719;BME280;42597;40.636;0.278;2022-11-20T00:47:07;97117.41;;;13.13;51.70
56719;BME280;42597;40.636;0.278;2022-11-20T00:49:33;97061.16;;;13.10;51.04
56719;BME280;42597;40.636;0.278;2022-11-20T00:51:59;97043.63;;;14.17;52.52
56719;BME280;42597;40.636;0.278;2022-11-20T00:54:24;97049.84;;;13.84;52.96
56719;BME280;42597;40.636;0.278;2022-11-20T00:56:52;97093.66;;;13.82;47.54
56719;BME280;42597;40.636;0.278;2022-11-20T00:59:18;97093.94;;;13.47;53.58
56719;BME280;42597;40.636;0.278;2022-11-20T01:01:45;97062.63;;;12.58;52.03
56719;BME280;42597;40.636;0.278;2022-11-20T01:04:10;97119.78;;;13.94;47.76
56719;BME280;42597;40.636;0.278;2022-11-20T01:06:37;97079.31;;;13.29;51.30
56719;BME280;42597;40.636;0.278;2022-11-20T01:09:09;97068.00;;;13.50;46.61
56719;BME280;42597;40.636;0.278;2022-11-20T01:11:38;97095.16;;;14.10;48.52
56719;BME280;42597;40.636;0.278;2022-11-20T01:14:07;97122.31;;;13.04;49.41
56719;BME280;42597;40.636;0.278;2022-11-20T01:16:35;97054.53;;;13.30;53.91
56719;BME280;42597;40.636;0.278;2022-11-20T01:19:04;97109.22;;;14.16;49.64
56719;BME280;42597;40.636;0.278;2022-11-20T01:21:31;97094.19;;;13.92;52.75
56719;BME280;42597;40.636;0.278;2022-11-20T01:23:58;97081.84;;;14.31;51.44
56719;BME280;42597;40.636;0.278;2022-11-20T01:26:26;97108.47;;;14.49;53.26
56719;BME280;42597;40.636;0.278;2022-11-20T01:28:53;97082.19;;;13.66;53.23
56719;BME280;42597;40.636;0.278;2022-11-20T01:31:22;97089.03;;;13.83;53.14
56719;BME280;42597;40.636;0.278;2022-11-20T01:33:50;97079.56;;;12.97;49.14
56719;BME280;42597;40.636;0.278;2022-11-20T01:36:18;97067.56;;;12.98;51.29
56719;BME280;42597;40.636;0.278;2022-11-20T01:38:44;97059.63;;;13.62;55.32
56719;BME280;42597;40.636;0.278;2022-11-20T01:41:11;97136.94;;;12.76;50.24
56719;BME280;42597;40.636;0.278;2022-11-20T01:43:57;97086.16;;;12.96;50.24
56719;BME280;42597;40.636;0.278;2022-11-20T01:46:23;97103.13;;;13.16;49.36
56719;BME280;42597;40.636;0.278;2022-11-20T01:48:54;97085.59;;;13.90;52.22
56719;BME280;42597;40.636;0.278;2022-11-20T01:51:28;97082.41;;;14.14;53.91
56719;BME280;42597;40.636;0.278;2022-11-20T01:53:57;97099.94;;;12.88;49.87
56719;BME280;42597;40.636;0.278;2022-11-20T01:56:25;97090.19;;;13.86;54.48
56719;BME280;42597;40.636;0.278;2022-11-20T01:58:56;97101.84;;;13.86;50.85
56719;BME280;42597;40.636;0.278;2022-11-20T02:01:23;97088.69;;;14.52;49.56
56719;BME280;42597;40.636;0.278;2022-11-20T02:03:50;97105.94;;;14.03;53.00
56719;BME280;42597;40.636;0.278;2022-11-20T02:08:51;97098.91;;;13.98;48.19
56719;BME280;42597;40.636;0.278;2022-11-20T02:11:17;97122.50;;;13.64;51.15
56719;BME280;42597;40.636;0.278;2022-11-20T02:13:44;97130.25;;;13.66;48.99
56719;BME280;42597;40.636;0.278;2022-11-20T02:16:36;97092.53;;;13.83;53.02
56719;BME280;42597;40.636;0.278;2022-11-20T02:19:02;97102.34;;;13.65;51.88
56719;BME280;42597;40.636;0.278;2022-11-20T02:26:41;97125.00;;;13.76;53.42
56719;BME280;42597;40.636;0.278;2022-11-20T02:29:08;97140.25;;;13.58;50.97
56719;BME280;42597;40.636;0.278;2022-11-20T02:31:37;97126.31;;;14.16;52.78
56719;BME280;42597;40.636;0.278;2022-11-20T02:34:03;97112.75;;;13.90;53.20
56719;BME280;42597;40.636;0.278;2022-11-20T02:36:30;97106.66;;;14.30;51.99
56719;BME280;42597;40.636;0.278;2022-11-20T02:38:57;97111.00;;;13.48;51.79
56719;BME280;42597;40.636;0.278;2022-11-20T02:41:31;97118.75;;;14.02;53.17
56719;BME280;42597;40.636;0.278;2022-11-20T02:43:56;97111.00;;;13.74;47.98
56719;BME280;42597;40.636;0.278;2022-11-20T02:46:22;97162.41;;;12.52;47.81
56719;BME280;42597;40.636;0.278;2022-11-20T02:48:48;97091.13;;;13.97;52.96
56719;BME280;42597;40.636;0.278;2022-11-20T02:51:13;97109.03;;;13.45;52.83
56719;BME280;42597;40.636;0.278;2022-11-20T02:53:39;97140.66;;;13.60;47.73
56719;BME280;42597;40.636;0.278;2022-11-20T02:56:05;97109.38;;;13.96;53.05
56719;BME280;42597;40.636;0.278;2022-11-20T02:58:31;97129.66;;;13.26;47.65
56719;BME280;42597;40.636;0.278;2022-11-20T03:00:56;97137.16;;;13.86;52.71
56719;BME280;42597;40.636;0.278;2022-11-20T03:03:22;97161.28;;;13.65;48.86
56719;BME280;42597;40.636;0.278;2022-11-20T03:05:48;97100.94;;;13.48;51.84
56719;BME280;42597;40.636;0.278;2022-11-20T03:08:13;97134.53;;;12.52;48.61
56719;BME280;42597;40.636;0.278;2022-11-20T03:10:39;97133.03;;;13.20;50.55
56719;BME280;42597;40.636;0.278;2022-11-20T03:13:04;97091.19;;;13.44;52.41
56719;BME280;42597;40.636;0.278;2022-11-20T03:15:30;97141.81;;;12.90;48.35
56719;BME280;42597;40.636;0.278;2022-11-20T03:17:56;97146.63;;;13.69;50.86
56719;BME280;42597;40.636;0.278;2022-11-20T03:20:22;97121.66;;;13.60;51.97
56719;BME280;42597;40.636;0.278;2022-11-20T03:22:48;97126.75;;;12.93;48.09
56719;BME280;42597;40.636;0.278;2022-11-20T03:25:13;97147.66;;;13.61;51.25
56719;BME280;42597;40.636;0.278;2022-11-20T03:27:39;97149.09;;;13.28;49.24
56719;BME280;42597;40.636;0.278;2022-11-20T03:30:05;97131.81;;;13.63;49.41
56719;BME280;42597;40.636;0.278;2022-11-20T03:32:31;97161.59;;;13.86;52.11
56719;BME280;42597;40.636;0.278;2022-11-20T03:34:57;97167.31;;;13.08;49.94
56719;BME280;42597;40.636;0.278;2022-11-20T03:37:22;97121.16;;;14.07;52.58
56719;BME280;42597;40.636;0.278;2022-11-20T03:39:48;97159.63;;;13.33;49.30
56719;BME280;42597;40.636;0.278;2022-11-20T03:42:14;97138.19;;;13.25;52.51
56719;BME280;42597;40.636;0.278;2022-11-20T03:45:16;97137.72;;;12.57;50.22
56719;BME280;42597;40.636;0.278;2022-11-20T03:47:43;97108.41;;;13.55;52.52
56719;BME280;42597;40.636;0.278;2022-11-20T03:50:11;97105.88;;;13.96;52.95
56719;BME280;42597;40.636;0.278;2022-11-20T03:52:38;97118.09;;;13.82;53.40
56719;BME280;42597;40.636;0.278;2022-11-20T03:55:05;97150.72;;;13.86;47.77
56719;BME280;42597;40.636;0.278;2022-11-20T03:57:30;97140.88;;;13.48;50.23
56719;BME280;42597;40.636;0.278;2022-11-20T03:59:56;97211.31;;;13.41;50.38
56719;BME280;42597;40.636;0.278;2022-11-20T04:02:22;97168.06;;;14.04;50.76
56719;BME280;42597;40.636;0.278;2022-11-20T04:04:48;97177.41;;;13.08;47.47
56719;BME280;42597;40.636;0.278;2022-11-20T04:07:13;97134.53;;;13.17;50.14
56719;BME280;42597;40.636;0.278;2022-11-20T04:09:39;97127.16;;;13.94;51.15
56719;BME280;42597;40.636;0.278;2022-11-20T04:12:05;97159.25;;;12.70;51.32
56719;BME280;42597;40.636;0.278;2022-11-20T04:14:30;97171.13;;;13.99;51.57
56719;BME280;42597;40.636;0.278;2022-11-20T04:16:56;97159.66;;;13.60;50.38
56719;BME280;42597;40.636;0.278;2022-11-20T04:19:21;97190.13;;;13.50;53.33
56719;BME280;42597;40.636;0.278;2022-11-20T04:21:47;97166.47;;;13.47;48.81
56719;BME280;42597;40.636;0.278;2022-11-20T04:24:13;97146.78;;;13.30;47.64
56719;BME280;42597;40.636;0.278;2022-11-20T04:26:39;97180.84;;;12.85;53.20
56719;BME280;42597;40.636;0.278;2022-11-20T04:29:05;97118.50;;;14.15;53.05
56719;BME280;42597;40.636;0.278;2022-11-20T04:31:33;97093.00;;;13.36;51.77
56719;BME280;42597;40.636;0.278;2022-11-20T04:34:00;97103.56;;;13.98;53.41
56719;BME280;42597;40.636;0.278;2022-11-20T04:36:27;97115.69;;;13.77;52.79
56719;BME280;42597;40.636;0.278;2022-11-20T04:38:56;97123.69;;;14.27;50.99
56719;BME280;42597;40.636;0.278;2022-11-20T04:41:27;97154.25;;;13.60;53.27
56719;BME280;42597;40.636;0.278;2022-11-20T04:43:57;97119.41;;;13.39;52.55
56719;BME280;42597;40.636;0.278;2022-11-20T04:46:26;97116.53;;;13.28;53.48
56719;BME280;42597;40.636;0.278;2022-11-20T04:48:52;97137.03;;;13.03;48.00
56719;BME280;42597;40.636;0.278;2022-11-20T04:51:17;97127.09;;;13.60;50.76
56719;BME280;42597;40.636;0.278;2022-11-20T04:53:43;97104.22;;;14.21;52.54
56719;BME280;42597;40.636;0.278;2022-11-20T04:56:10;97150.06;;;13.40;51.82
56719;BME280;42597;40.636;0.278;2022-11-20T04:58:37;97136.59;;;13.47;51.43
56719;BME280;42597;40.636;0.278;2022-11-20T05:01:05;97142.81;;;13.24;49.06
56719;BME280;42597;40.636;0.278;2022-11-20T05:03:31;97181.03;;;13.39;49.06
56719;BME280;42597;40.636;0.278;2022-11-20T05:06:00;97168.13;;;14.08;52.36
56719;BME280;42597;40.636;0.278;2022-11-20T05:08:27;97151.91;;;14.15;51.82
56719;BME280;42597;40.636;0.278;2022-11-20T05:10:52;97172.94;;;13.92;51.75
56719;BME280;42597;40.636;0.278;2022-11-20T05:13:18;97187.31;;;14.22;53.21
56719;BME280;42597;40.636;0.278;2022-11-20T05:15:43;97216.22;;;13.12;49.73
56719;BME280;42597;40.636;0.278;2022-11-20T05:18:09;97247.06;;;13.46;52.09
56719;BME280;42597;40.636;0.278;2022-11-20T05:20:34;97253.41;;;13.54;52.41
56719;BME280;42597;40.636;0.278;2022-11-20T05:23:01;97283.66;;;13.75;52.75
56719;BME280;42597;40.636;0.278;2022-11-20T05:25:27;97301.63;;;13.83;48.73
56719;BME280;42597;40.636;0.278;2022-11-20T05:27:53;97303.97;;;14.08;53.96
56719;BME280;42597;40.636;0.278;2022-11-20T05:30:18;97321.56;;;13.10;47.32
56719;BME280;42597;40.636;0.278;2022-11-20T05:32:44;97317.13;;;13.60;52.64
56719;BME280;42597;40.636;0.278;2022-11-20T05:35:09;97336.44;;;13.55;54.41
56719;BME280;42597;40.636;0.278;2022-11-20T05:37:35;97344.53;;;14.20;48.96
56719;BME280;42597;40.636;0.278;2022-11-20T05:40:00;97350.63;;;13.91;49.33
56719;BME280;42597;40.636;0.278;2022-11-20T05:42:26;97361.16;;;13.11;50.00
56719;BME280;42597;40.636;0.278;2022-11-20T05:44:58;97354.31;;;14.02;54.84
56719;BME280;42597;40.636;0.278;2022-11-20T05:47:25;97363.59;;;12.81;53.73
56719;BME280;42597;40.636;0.278;2022-11-20T05:49:51;97368.31;;;12.84;53.39
56719;BME280;42597;40.636;0.278;2022-11-20T05:52:16;97362.44;;;13.37;53.17
56719;BME280;42597;40.636;0.278;2022-11-20T05:54:42;97358.47;;;14.19;54.91
56719;BME280;42597;40.636;0.278;2022-11-20T05:57:07;97371.56;;;13.67;56.12
56719;BME280;42597;40.636;0.278;2022-11-20T05:59:33;97370.09;;;13.73;54.83
56719;BME280;42597;40.636;0.278;2022-11-20T06:01:58;97370.88;;;14.43;53.32
56719;BME280;42597;40.636;0.278;2022-11-20T06:04:24;97368.69;;;13.21;54.40
56719;BME280;42597;40.636;0.278;2022-11-20T06:06:49;97366.84;;;13.64;53.46
56719;BME280;42597;40.636;0.278;2022-11-20T06:09:14;97370.84;;;14.16;54.43
56719;BME280;42597;40.636;0.278;2022-11-20T06:11:40;97373.19;;;14.18;55.23
56719;BME280;42597;40.636;0.278;2022-11-20T06:14:06;97363.00;;;13.26;53.15
56719;BME280;42597;40.636;0.278;2022-11-20T06:16:31;97367.34;;;14.16;53.62
56719;BME280;42597;40.636;0.278;2022-11-20T06:18:57;97364.84;;;14.30;54.79
56719;BME280;42597;40.636;0.278;2022-11-20T06:21:22;97377.69;;;13.06;54.46
56719;BME280;42597;40.636;0.278;2022-11-20T06:23:49;97363.94;;;14.22;55.31
56719;BME280;42597;40.636;0.278;2022-11-20T06:26:18;97357.19;;;14.36;54.90
56719;BME280;42597;40.636;0.278;2022-11-20T06:28:44;97363.53;;;14.20;52.84
56719;BME280;42597;40.636;0.278;2022-11-20T06:31:16;97368.72;;;14.78;53.38
56719;BME280;42597;40.636;0.278;2022-11-20T06:33:42;97379.53;;;13.79;48.58
56719;BME280;42597;40.636;0.278;2022-11-20T06:36:10;97380.13;;;13.50;53.79
56719;BME280;42597;40.636;0.278;2022-11-20T06:38:35;97381.59;;;14.09;53.37
56719;BME280;42597;40.636;0.278;2022-11-20T06:41:03;97377.97;;;14.74;53.79
56719;BME280;42597;40.636;0.278;2022-11-20T06:43:29;97387.53;;;13.92;55.61
56719;BME280;42597;40.636;0.278;2022-11-20T06:45:57;97378.56;;;14.60;51.85
56719;BME280;42597;40.636;0.278;2022-11-20T06:48:23;97371.63;;;14.40;54.25
56719;BME280;42597;40.636;0.278;2022-11-20T06:50:49;97374.44;;;12.30;51.65
56719;BME280;42597;40.636;0.278;2022-11-20T06:53:15;97387.69;;;13.21;57.74
56719;BME280;42597;40.636;0.278;2022-11-20T06:55:47;97384.06;;;14.64;54.13
56719;BME280;42597;40.636;0.278;2022-11-20T06:58:14;97383.56;;;13.08;56.03
56719;BME280;42597;40.636;0.278;2022-11-20T07:00:40;97383.16;;;14.56;54.34
56719;BME280;42597;40.636;0.278;2022-11-20T07:03:07;97378.06;;;14.81;53.55
56719;BME280;42597;40.636;0.278;2022-11-20T07:05:33;97380.88;;;13.27;53.75
56719;BME280;42597;40.636;0.278;2022-11-20T07:07:58;97390.78;;;12.84;54.33
56719;BME280;42597;40.636;0.278;2022-11-20T07:10:24;97392.34;;;14.02;55.13
56719;BME280;42597;40.636;0.278;2022-11-20T07:12:51;97398.53;;;13.21;54.66
56719;BME280;42597;40.636;0.278;2022-11-20T07:15:18;97399.03;;;13.43;56.00
56719;BME280;42597;40.636;0.278;2022-11-20T07:17:44;97399.25;;;13.18;57.30
56719;BME280;42597;40.636;0.278;2022-11-20T07:20:10;97404.72;;;14.22;55.64
56719;BME280;42597;40.636;0.278;2022-11-20T07:22:36;97412.16;;;13.41;53.09
56719;BME280;42597;40.636;0.278;2022-11-20T07:25:01;97418.00;;;13.62;56.31
56719;BME280;42597;40.636;0.278;2022-11-20T07:27:27;97416.47;;;12.71;54.31
56719;BME280;42597;40.636;0.278;2022-11-20T07:29:53;97416.66;;;11.99;54.20
56719;BME280;42597;40.636;0.278;2022-11-20T07:32:18;97426.81;;;12.18;54.16
56719;BME280;42597;40.636;0.278;2022-11-20T07:34:44;97429.06;;;11.72;55.46
56719;BME280;42597;40.636;0.278;2022-11-20T07:37:09;97429.25;;;12.07;56.10
56719;BME280;42597;40.636;0.278;2022-11-20T07:39:35;97448.47;;;12.02;55.08
56719;BME280;42597;40.636;0.278;2022-11-20T07:42:00;97451.59;;;11.48;56.33
56719;BME280;42597;40.636;0.278;2022-11-20T07:44:26;97455.09;;;11.49;56.79
56719;BME280;42597;40.636;0.278;2022-11-20T07:46:51;97457.69;;;11.73;55.61
56719;BME280;42597;40.636;0.278;2022-11-20T07:49:17;97465.72;;;11.29;57.28
56719;BME280;42597;40.636;0.278;2022-11-20T07:51:42;97457.25;;;11.83;55.43
56719;BME280;42597;40.636;0.278;2022-11-20T07:54:08;97469.72;;;11.60;56.22
56719;BME280;42597;40.636;0.278;2022-11-20T07:56:33;97459.72;;;11.48;56.57
56719;BME280;42597;40.636;0.278;2022-11-20T07:58:59;97471.09;;;11.54;56.65
56719;BME280;42597;40.636;0.278;2022-11-20T08:01:25;97465.94;;;11.36;57.25
56719;BME280;42597;40.636;0.278;2022-11-20T08:03:50;97463.00;;;11.42;56.14
56719;BME280;42597;40.636;0.278;2022-11-20T08:06:16;97469.25;;;11.98;60.26
56719;BME280;42597;40.636;0.278;2022-11-20T08:08:42;97468.81;;;12.12;54.95
56719;BME280;42597;40.636;0.278;2022-11-20T08:11:08;97469.19;;;12.26;54.34
56719;BME280;42597;40.636;0.278;2022-11-20T08:13:52;97467.06;;;12.04;56.49
56719;BME280;42597;40.636;0.278;2022-11-20T08:16:36;97459.56;;;13.66;56.70
56719;BME280;42597;40.636;0.278;2022-11-20T08:19:02;97463.09;;;13.12;53.25
56719;BME280;42597;40.636;0.278;2022-11-20T08:21:27;97478.28;;;12.50;55.26
56719;BME280;42597;40.636;0.278;2022-11-20T08:23:53;97469.63;;;12.44;53.86
56719;BME280;42597;40.636;0.278;2022-11-20T08:26:18;97468.66;;;12.37;55.28
56719;BME280;42597;40.636;0.278;2022-11-20T08:28:44;97472.72;;;12.58;53.96
56719;BME280;42597;40.636;0.278;2022-11-20T08:31:10;97477.47;;;12.81;53.88
56719;BME280;42597;40.636;0.278;2022-11-20T08:33:35;97482.72;;;12.74;55.52
56719;BME280;42597;40.636;0.278;2022-11-20T08:36:03;97476.53;;;12.57;55.19
56719;BME280;42597;40.636;0.278;2022-11-20T08:38:29;97470.66;;;12.24;56.30
56719;BME280;42597;40.636;0.278;2022-11-20T08:41:02;97457.81;;;12.37;54.86
56719;BME280;42597;40.636;0.278;2022-11-20T08:43:46;97459.38;;;12.69;56.79
56719;BME280;42597;40.636;0.278;2022-11-20T08:46:12;97457.03;;;12.52;54.81
56719;BME280;42597;40.636;0.278;2022-11-20T08:48:38;97462.00;;;12.50;56.02
56719;BME280;42597;40.636;0.278;2022-11-20T08:51:03;97471.19;;;12.61;54.86
56719;BME280;42597;40.636;0.278;2022-11-20T08:53:29;97469.91;;;12.55;55.92
56719;BME280;42597;40.636;0.278;2022-11-20T08:55:56;97470.22;;;12.69;54.65
56719;BME280;42597;40.636;0.278;2022-11-20T08:58:22;97436.13;;;13.19;55.19
56719;BME280;42597;40.636;0.278;2022-11-20T09:00:48;97437.59;;;13.94;52.71
56719;BME280;42597;40.636;0.278;2022-11-20T09:03:13;97447.78;;;13.04;55.27
56719;BME280;42597;40.636;0.278;2022-11-20T09:05:39;97456.59;;;13.17;55.02
56719;BME280;42597;40.636;0.278;2022-11-20T09:08:04;97450.34;;;13.90;57.83
56719;BME280;42597;40.636;0.278;2022-11-20T09:10:30;97451.44;;;13.47;53.64
56719;BME280;42597;40.636;0.278;2022-11-20T09:12:56;97448.06;;;12.99;55.63
56719;BME280;42597;40.636;0.278;2022-11-20T09:15:22;97450.47;;;13.20;55.41
56719;BME280;42597;40.636;0.278;2022-11-20T09:18:00;97448.88;;;12.83;55.34
56719;BME280;42597;40.636;0.278;2022-11-20T09:20:27;97452.66;;;13.14;54.44
56719;BME280;42597;40.636;0.278;2022-11-20T09:22:54;97460.16;;;13.56;53.81
56719;BME280;42597;40.636;0.278;2022-11-20T09:25:20;97459.72;;;13.54;54.78
56719;BME280;42597;40.636;0.278;2022-11-20T09:27:46;97467.47;;;14.37;55.33
56719;BME280;42597;40.636;0.278;2022-11-20T09:30:13;97460.28;;;13.82;53.90
56719;BME280;42597;40.636;0.278;2022-11-20T09:32:39;97466.47;;;14.68;55.79
56719;BME280;42597;40.636;0.278;2022-11-20T09:35:05;97460.84;;;14.11;52.41
56719;BME280;42597;40.636;0.278;2022-11-20T09:37:31;97462.13;;;13.98;53.88
56719;BME280;42597;40.636;0.278;2022-11-20T09:39:56;97468.69;;;14.16;54.39
56719;BME280;42597;40.636;0.278;2022-11-20T09:55:03;97493.50;;;14.57;55.63
56719;BME280;42597;40.636;0.278;2022-11-20T09:57:36;97494.41;;;14.65;54.29
56719;BME280;42597;40.636;0.278;2022-11-20T10:00:05;97504.38;;;14.57;55.51
56719;BME280;42597;40.636;0.278;2022-11-20T10:02:39;97498.50;;;14.55;54.86
56719;BME280;42597;40.636;0.278;2022-11-20T10:05:21;97504.66;;;14.75;54.79
56719;BME280;42597;40.636;0.278;2022-11-20T10:10:46;97514.75;;;14.74;55.59
56719;BME280;42597;40.636;0.278;2022-11-20T10:26:55;97536.53;;;14.32;56.00
56719;BME280;42597;40.636;0.278;2022-11-20T10:29:32;97526.84;;;15.00;55.72
56719;BME280;42597;40.636;0.278;2022-11-20T10:32:11;97528.16;;;14.87;54.82
56719;BME280;42597;40.636;0.278;2022-11-20T10:37:18;97537.09;;;15.10;54.74
56719;BME280;42597;40.636;0.278;2022-11-20T10:42:37;97532.16;;;14.93;54.62
56719;BME280;42597;40.636;0.278;2022-11-20T10:50:35;97514.88;;;15.35;54.66
56719;BME280;42597;40.636;0.278;2022-11-20T10:53:06;97501.72;;;15.37;54.38
56719;BME280;42597;40.636;0.278;2022-11-20T10:56:17;97503.28;;;14.85;54.43
56719;BME280;42597;40.636;0.278;2022-11-20T11:01:22;97502.53;;;15.41;53.80
56719;BME280;42597;40.636;0.278;2022-11-20T11:03:53;97497.09;;;15.41;53.69
56719;BME280;42597;40.636;0.278;2022-11-20T11:06:36;97497.38;;;15.62;53.30
56719;BME280;42597;40.636;0.278;2022-11-20T11:09:11;97483.03;;;15.65;52.85
56719;BME280;42597;40.636;0.278;2022-11-20T11:11:40;97481.16;;;15.69;53.13
56719;BME280;42597;40.636;0.278;2022-11-20T11:14:10;97490.44;;;15.65;53.48
56719;BME280;42597;40.636;0.278;2022-11-20T11:16:49;97480.19;;;15.58;53.93
56719;BME280;42597;40.636;0.278;2022-11-20T11:19:15;97470.25;;;15.69;54.28
56719;BME280;42597;40.636;0.278;2022-11-20T11:21:50;97462.28;;;15.57;53.95
56719;BME280;42597;40.636;0.278;2022-11-20T11:24:25;97468.97;;;15.63;54.41
56719;BME280;42597;40.636;0.278;2022-11-20T11:27:03;97475.16;;;15.90;53.27
56719;BME280;42597;40.636;0.278;2022-11-20T11:29:35;97472.84;;;15.92;53.91
56719;BME280;42597;40.636;0.278;2022-11-20T11:32:11;97460.56;;;16.09;53.73
56719;BME280;42597;40.636;0.278;2022-11-20T11:34:37;97450.50;;;16.13;52.68
56719;BME280;42597;40.636;0.278;2022-11-20T11:37:04;97443.97;;;15.88;54.57
56719;BME280;42597;40.636;0.278;2022-11-20T11:39:42;97440.22;;;15.99;54.20
56719;BME280;42597;40.636;0.278;2022-11-20T11:42:12;97465.91;;;15.98;53.33
56719;BME280;42597;40.636;0.278;2022-11-20T11:44:44;97471.06;;;16.07;52.74
56719;BME280;42597;40.636;0.278;2022-11-20T11:50:24;97467.03;;;16.35;52.71
56719;BME280;42597;40.636;0.278;2022-11-20T12:00:03;97465.84;;;16.28;52.45
56719;BME280;42597;40.636;0.278;2022-11-20T12:02:48;97459.41;;;16.10;52.61
56719;BME280;42597;40.636;0.278;2022-11-20T12:16:21;97464.03;;;16.47;52.64
56719;BME280;42597;40.636;0.278;2022-11-20T12:18:49;97467.81;;;16.35;53.22
56719;BME280;42597;40.636;0.278;2022-11-20T12:29:41;97468.00;;;16.12;53.52
56719;BME280;42597;40.636;0.278;2022-11-20T12:35:05;97472.47;;;16.31;54.09
56719;BME280;42597;40.636;0.278;2022-11-20T12:40:47;97470.72;;;16.53;54.30
56719;BME280;42597;40.636;0.278;2022-11-20T12:43:24;97463.34;;;16.57;54.59
56719;BME280;42597;40.636;0.278;2022-11-20T12:49:17;97452.28;;;16.39;53.99
56719;BME280;42597;40.636;0.278;2022-11-20T12:57:29;97467.22;;;16.56;54.12
56719;BME280;42597;40.636;0.278;2022-11-20T13:05:35;97464.75;;;16.37;53.74
56719;BME280;42597;40.636;0.278;2022-11-20T13:08:02;97442.00;;;16.22;54.86
56719;BME280;42597;40.636;0.278;2022-11-20T13:10:39;97462.47;;;16.46;53.26
56719;BME280;42597;40.636;0.278;2022-11-20T13:16:29;97440.75;;;16.57;51.74
56719;BME280;42597;40.636;0.278;2022-11-20T13:18:29;97449.69;;;16.53;52.95
56719;BME280;42597;40.636;0.278;2022-11-20T13:20:58;97450.16;;;16.66;51.97
56719;BME280;42597;40.636;0.278;2022-11-20T13:23:26;97443.22;;;16.72;52.31
56719;BME280;42597;40.636;0.278;2022-11-20T13:26:13;97467.91;;;16.42;52.55
56719;BME280;42597;40.636;0.278;2022-11-20T13:28:40;97436.00;;;16.50;52.33
56719;BME280;42597;40.636;0.278;2022-11-20T13:31:21;97459.41;;;16.51;52.71
56719;BME280;42597;40.636;0.278;2022-11-20T13:33:51;97440.75;;;16.60;53.11
56719;BME280;42597;40.636;0.278;2022-11-20T13:36:25;97441.63;;;16.71;52.31
56719;BME280;42597;40.636;0.278;2022-11-20T13:38:55;97447.00;;;16.57;52.13
56719;BME280;42597;40.636;0.278;2022-11-20T13:41:25;97453.94;;;16.51;51.95
56719;BME280;42597;40.636;0.278;2022-11-20T13:43:56;97441.94;;;16.59;53.21
56719;BME280;42597;40.636;0.278;2022-11-20T13:46:23;97433.81;;;16.66;53.12
56719;BME280;42597;40.636;0.278;2022-11-20T13:49:07;97414.72;;;16.70;52.75
56719;BME280;42597;40.636;0.278;2022-11-20T13:51:43;97415.19;;;16.75;52.84
56719;BME280;42597;40.636;0.278;2022-11-20T13:54:20;97424.38;;;16.60;52.49
56719;BME280;42597;40.636;0.278;2022-11-20T14:02:22;97410.16;;;16.77;53.11
56719;BME280;42597;40.636;0.278;2022-11-20T14:04:51;97387.84;;;16.68;52.26
56719;BME280;42597;40.636;0.278;2022-11-20T14:07:21;97415.19;;;16.75;52.83
56719;BME280;42597;40.636;0.278;2022-11-20T14:09:54;97414.69;;;16.66;52.63
56719;BME280;42597;40.636;0.278;2022-11-20T14:12:23;97421.72;;;16.67;51.99
56719;BME280;42597;40.636;0.278;2022-11-20T14:14:51;97407.31;;;16.70;51.91
56719;BME280;42597;40.636;0.278;2022-11-20T14:19:47;97426.91;;;16.80;52.28
56719;BME280;42597;40.636;0.278;2022-11-20T14:22:20;97410.94;;;16.82;51.88
56719;BME280;42597;40.636;0.278;2022-11-20T14:24:48;97435.59;;;16.96;51.96
56719;BME280;42597;40.636;0.278;2022-11-20T14:27:18;97454.34;;;16.97;53.25
56719;BME280;42597;40.636;0.278;2022-11-20T14:29:46;97418.81;;;16.94;51.82
56719;BME280;42597;40.636;0.278;2022-11-20T14:32:18;97409.47;;;16.95;52.07
56719;BME280;42597;40.636;0.278;2022-11-20T14:34:47;97429.75;;;16.97;53.16
56719;BME280;42597;40.636;0.278;2022-11-20T14:37:19;97405.97;;;16.98;51.83
56719;BME280;42597;40.636;0.278;2022-11-20T14:39:55;97425.34;;;16.78;51.98
56719;BME280;42597;40.636;0.278;2022-11-20T14:42:26;97412.84;;;16.74;52.88
56719;BME280;42597;40.636;0.278;2022-11-20T14:44:55;97425.03;;;16.91;51.72
56719;BME280;42597;40.636;0.278;2022-11-20T14:47:24;97429.91;;;16.67;52.34
56719;BME280;42597;40.636;0.278;2022-11-20T14:49:51;97431.00;;;16.59;52.13
56719;BME280;42597;40.636;0.278;2022-11-20T14:54:45;97430.09;;;16.89;52.97
56719;BME280;42597;40.636;0.278;2022-11-20T14:59:45;97421.34;;;16.65;52.53
56719;BME280;42597;40.636;0.278;2022-11-20T15:02:12;97437.34;;;16.70;53.28